Time;durP1;ratioP1;P1;durP2;ratioP2;P2;SDS_P1;SDS_P2;PMS_P1;PMS_P2;Temp;Humidity;BMP_temperature;BMP_pressure;BME280_temperature;BME280_humidity;BME280_pressure;Samples;Min_cycle;Max_cycle;Signal;HPM_P1;HPM_P2
2023/03/03 00:02:15;;;;;;;41.30;18.48;;;;;;;;;;5085320;28;20494;-66
2023/03/03 00:04:41;;;;;;;45.97;18.33;;;;;;;;;;5087031;28;20036;-66
2023/03/03 00:07:07;;;;;;;41.30;18.85;;;;;;;;;;5070175;28;20040;-66
2023/03/03 00:09:33;;;;;;;42.70;17.63;;;;;;;;;;5089853;28;20443;-66
2023/03/03 00:12:00;;;;;;;37.33;17.83;;;;;;;;;;5080180;28;20029;-66
2023/03/03 00:14:31;;;;;;;35.25;16.33;;;;;;;;;;5068198;28;20040;-66
2023/03/03 00:16:59;;;;;;;33.28;16.15;;;;;;;;;;5084238;28;20086;-66
2023/03/03 00:19:25;;;;;;;31.33;14.50;;;;;;;;;;5068488;28;20036;-66
2023/03/03 00:21:51;;;;;;;27.25;13.00;;;;;;;;;;5091524;28;20147;-66
2023/03/03 00:24:19;;;;;;;30.27;14.75;;;;;;;;;;5089866;28;20486;-66
2023/03/03 00:26:46;;;;;;;32.58;15.02;;;;;;;;;;5077066;28;20036;-66
2023/03/03 00:29:29;;;;;;;31.27;14.18;;;;;;;;;;5083064;28;20098;-66
2023/03/03 00:32:22;;;;;;;33.45;15.68;;;;;;;;;;5083044;28;20040;-66
2023/03/03 00:34:48;;;;;;;32.63;14.80;;;;;;;;;;5080333;28;20048;-66
2023/03/03 00:37:29;;;;;;;31.77;14.10;;;;;;;;;;5067277;28;20040;-66
2023/03/03 00:40:13;;;;;;;26.95;13.73;;;;;;;;;;5089187;28;20631;-66
2023/03/03 00:42:40;;;;;;;29.45;13.10;;;;;;;;;;5083478;28;20119;-66
2023/03/03 00:45:27;;;;;;;27.65;13.00;;;;;;;;;;5091996;28;20128;-66
2023/03/03 00:47:53;;;;;;;28.15;13.85;;;;;;;;;;5046443;28;20052;-66
2023/03/03 00:50:34;;;;;;;31.30;14.07;;;;;;;;;;5090061;28;20082;-66
2023/03/03 00:53:01;;;;;;;28.90;13.30;;;;;;;;;;5085568;28;20405;-66
2023/03/03 00:55:27;;;;;;;30.90;15.52;;;;;;;;;;5078389;28;20040;-66
2023/03/03 00:57:53;;;;;;;32.88;15.15;;;;;;;;;;5088768;28;20050;-67
2023/03/03 01:00:19;;;;;;;38.85;16.85;;;;;;;;;;5079516;28;20086;-66
2023/03/03 01:02:47;;;;;;;36.65;16.65;;;;;;;;;;5085049;28;20041;-66
2023/03/03 01:05:14;;;;;;;34.35;15.27;;;;;;;;;;5085684;28;20036;-66
2023/03/03 01:07:40;;;;;;;30.48;14.98;;;;;;;;;;5088608;28;20374;-66
2023/03/03 01:10:06;;;;;;;36.03;15.48;;;;;;;;;;5083298;28;20043;-66
2023/03/03 01:12:32;;;;;;;34.50;15.65;;;;;;;;;;5079217;28;20036;-66
2023/03/03 01:14:58;;;;;;;34.63;16.92;;;;;;;;;;5090998;28;20032;-66
2023/03/03 01:17:24;;;;;;;38.80;15.65;;;;;;;;;;5078052;28;20112;-66
2023/03/03 01:19:50;;;;;;;36.00;15.38;;;;;;;;;;5082554;28;20040;-66
2023/03/03 01:22:16;;;;;;;33.47;15.60;;;;;;;;;;5084622;28;20048;-66
2023/03/03 01:24:42;;;;;;;35.08;15.85;;;;;;;;;;5076699;28;20040;-66
2023/03/03 01:27:08;;;;;;;37.47;14.73;;;;;;;;;;5080081;28;20036;-66
2023/03/03 01:29:34;;;;;;;40.72;14.38;;;;;;;;;;5063593;28;20047;-66
2023/03/03 01:32:00;;;;;;;36.33;14.05;;;;;;;;;;5071352;28;20033;-66
2023/03/03 01:34:26;;;;;;;36.28;15.60;;;;;;;;;;5072419;28;20036;-66
2023/03/03 01:36:52;;;;;;;34.00;14.43;;;;;;;;;;5079467;28;20086;-66
2023/03/03 01:39:18;;;;;;;32.00;13.63;;;;;;;;;;5079038;28;20871;-66
2023/03/03 01:41:44;;;;;;;35.83;13.57;;;;;;;;;;5084964;28;20036;-66
2023/03/03 01:44:16;;;;;;;32.47;13.65;;;;;;;;;;5086943;28;20044;-66
2023/03/03 01:46:54;;;;;;;31.55;13.77;;;;;;;;;;5089756;28;20062;-66
2023/03/03 01:49:32;;;;;;;39.38;14.57;;;;;;;;;;5086442;28;20032;-66
2023/03/03 01:51:59;;;;;;;33.78;13.93;;;;;;;;;;5088218;28;20052;-66
2023/03/03 01:54:37;;;;;;;37.17;14.27;;;;;;;;;;5092583;28;20036;-66
2023/03/03 01:57:05;;;;;;;43.03;14.85;;;;;;;;;;5079853;28;20035;-66
2023/03/03 01:59:34;;;;;;;38.35;14.45;;;;;;;;;;5086059;28;20511;-66
2023/03/03 02:02:00;;;;;;;41.80;15.18;;;;;;;;;;5087539;28;20047;-66
2023/03/03 02:04:26;;;;;;;52.55;14.68;;;;;;;;;;5089571;28;20036;-66
2023/03/03 02:06:55;;;;;;;48.03;15.60;;;;;;;;;;5089952;28;20046;-66
2023/03/03 02:09:40;;;;;;;58.22;14.77;;;;;;;;;;5086653;28;20461;-66
2023/03/03 02:12:07;;;;;;;52.15;14.93;;;;;;;;;;5082675;28;20038;-66
2023/03/03 02:14:34;;;;;;;65.60;15.40;;;;;;;;;;5086313;28;20052;-66
2023/03/03 02:17:00;;;;;;;68.85;16.75;;;;;;;;;;5075144;28;20040;-66
2023/03/03 02:19:39;;;;;;;70.55;16.92;;;;;;;;;;5084619;28;20076;-66
2023/03/03 02:22:05;;;;;;;51.03;15.07;;;;;;;;;;5085757;28;20043;-66
2023/03/03 02:24:34;;;;;;;47.20;13.88;;;;;;;;;;5085452;28;20055;-66
2023/03/03 02:27:00;;;;;;;49.08;15.02;;;;;;;;;;5063909;28;20139;-67
2023/03/03 02:29:26;;;;;;;46.25;14.73;;;;;;;;;;5085447;28;20043;-66
2023/03/03 02:31:52;;;;;;;53.38;13.15;;;;;;;;;;5083437;28;20501;-66
2023/03/03 02:34:18;;;;;;;48.80;14.73;;;;;;;;;;5085131;28;21261;-66
2023/03/03 02:36:44;;;;;;;52.67;15.27;;;;;;;;;;5071898;28;20481;-66
2023/03/03 02:39:13;;;;;;;46.58;13.75;;;;;;;;;;5085445;28;20032;-66
2023/03/03 02:41:42;;;;;;;41.83;13.43;;;;;;;;;;5080487;28;20637;-66
2023/03/03 02:44:11;;;;;;;43.15;12.93;;;;;;;;;;5089984;28;20039;-66
2023/03/03 02:46:41;;;;;;;55.30;13.18;;;;;;;;;;5082313;28;20033;-66
2023/03/03 02:49:09;;;;;;;47.75;13.00;;;;;;;;;;5068540;28;20044;-66
2023/03/03 02:51:35;;;;;;;48.22;13.45;;;;;;;;;;5088234;28;20032;-66
2023/03/03 02:54:01;;;;;;;57.65;13.35;;;;;;;;;;5081664;28;20047;-66
2023/03/03 02:56:27;;;;;;;42.00;12.00;;;;;;;;;;5093625;28;20028;-66
2023/03/03 02:58:53;;;;;;;52.50;13.40;;;;;;;;;;5090780;28;20046;-66
2023/03/03 03:01:19;;;;;;;57.72;13.30;;;;;;;;;;5085177;28;20036;-66
2023/03/03 03:03:45;;;;;;;55.75;14.05;;;;;;;;;;5090462;28;20043;-66
2023/03/03 03:06:11;;;;;;;53.65;13.73;;;;;;;;;;5082444;28;20068;-66
2023/03/03 03:08:37;;;;;;;48.08;13.48;;;;;;;;;;5078441;28;20040;-66
2023/03/03 03:11:04;;;;;;;49.33;13.85;;;;;;;;;;5054698;28;20041;-66
2023/03/03 03:13:31;;;;;;;55.22;12.75;;;;;;;;;;5084119;28;20075;-66
2023/03/03 03:15:57;;;;;;;43.45;12.50;;;;;;;;;;5073106;28;20044;-65
2023/03/03 03:18:23;;;;;;;72.68;13.38;;;;;;;;;;5062050;28;20086;-66
2023/03/03 03:20:49;;;;;;;63.22;13.52;;;;;;;;;;5082246;28;20055;-66
2023/03/03 03:23:15;;;;;;;63.53;13.13;;;;;;;;;;5082530;28;20449;-66
2023/03/03 03:25:45;;;;;;;72.25;13.52;;;;;;;;;;5081065;28;20042;-66
2023/03/03 03:28:17;;;;;;;73.30;13.75;;;;;;;;;;5086254;28;20052;-66
2023/03/03 03:30:44;;;;;;;79.75;14.35;;;;;;;;;;5083556;28;20028;-66
2023/03/03 03:33:11;;;;;;;82.20;14.07;;;;;;;;;;5083345;28;20033;-67
2023/03/03 03:35:37;;;;;;;88.00;14.13;;;;;;;;;;5083266;28;20032;-66
2023/03/03 03:38:03;;;;;;;73.57;14.40;;;;;;;;;;5089092;28;20047;-66
2023/03/03 03:40:29;;;;;;;71.15;14.50;;;;;;;;;;5092487;28;20036;-66
2023/03/03 03:42:56;;;;;;;81.55;14.10;;;;;;;;;;5092292;28;20124;-66
2023/03/03 03:45:22;;;;;;;82.70;13.75;;;;;;;;;;5081183;28;20059;-66
2023/03/03 03:47:48;;;;;;;69.28;14.52;;;;;;;;;;5089291;28;20036;-66
2023/03/03 03:50:14;;;;;;;87.40;15.70;;;;;;;;;;5084523;28;20028;-66
2023/03/03 03:52:40;;;;;;;74.97;13.55;;;;;;;;;;5071035;28;20044;-66
2023/03/03 03:55:06;;;;;;;83.43;14.57;;;;;;;;;;5067558;28;20047;-66
2023/03/03 03:57:32;;;;;;;66.53;14.00;;;;;;;;;;5089113;28;20089;-66
2023/03/03 03:59:58;;;;;;;78.00;15.55;;;;;;;;;;5081776;28;20032;-66
2023/03/03 04:02:24;;;;;;;57.15;14.70;;;;;;;;;;5059896;28;20075;-65
2023/03/03 04:04:50;;;;;;;60.65;13.68;;;;;;;;;;5085745;28;20059;-66
2023/03/03 04:07:16;;;;;;;60.20;13.50;;;;;;;;;;5063646;28;20075;-66
2023/03/03 04:09:42;;;;;;;66.95;13.68;;;;;;;;;;5092102;28;20498;-66
2023/03/03 04:12:08;;;;;;;62.40;13.70;;;;;;;;;;5062172;28;20083;-66
2023/03/03 04:14:34;;;;;;;64.07;13.68;;;;;;;;;;5087227;28;20036;-66
2023/03/03 04:17:00;;;;;;;56.28;13.27;;;;;;;;;;5080351;28;20063;-66
2023/03/03 04:19:26;;;;;;;84.57;15.05;;;;;;;;;;5088508;28;20036;-66
2023/03/03 04:21:52;;;;;;;67.35;13.02;;;;;;;;;;5073651;28;20078;-66
2023/03/03 04:24:18;;;;;;;110.68;15.57;;;;;;;;;;5076743;28;20036;-66
2023/03/03 04:26:44;;;;;;;52.10;13.18;;;;;;;;;;5082720;28;20035;-66
2023/03/03 04:29:10;;;;;;;70.93;14.48;;;;;;;;;;5063643;28;20044;-66
2023/03/03 04:31:36;;;;;;;73.50;14.77;;;;;;;;;;5088367;28;20519;-66
2023/03/03 04:34:02;;;;;;;64.25;13.57;;;;;;;;;;5080265;28;20050;-66
2023/03/03 04:36:28;;;;;;;75.20;13.93;;;;;;;;;;5104435;22;20055;-66
2023/03/03 04:38:54;;;;;;;53.30;12.73;;;;;;;;;;5070267;28;20048;-66
2023/03/03 04:41:20;;;;;;;77.90;14.02;;;;;;;;;;5069766;28;20058;-66
2023/03/03 04:43:46;;;;;;;75.70;14.38;;;;;;;;;;5067067;28;20050;-66
2023/03/03 04:46:12;;;;;;;63.70;13.63;;;;;;;;;;5068956;28;20628;-66
2023/03/03 04:48:38;;;;;;;94.97;15.68;;;;;;;;;;5069060;28;20409;-66
2023/03/03 04:51:04;;;;;;;59.40;13.68;;;;;;;;;;5052787;28;20045;-66
2023/03/03 04:53:30;;;;;;;59.95;13.85;;;;;;;;;;5053582;28;20037;-66
2023/03/03 04:55:56;;;;;;;80.65;14.65;;;;;;;;;;5070603;28;20028;-66
2023/03/03 04:58:22;;;;;;;72.45;14.25;;;;;;;;;;5069017;28;20044;-65
2023/03/03 05:00:55;;;;;;;73.97;14.07;;;;;;;;;;5067743;28;20044;-66
2023/03/03 05:03:22;;;;;;;55.63;13.50;;;;;;;;;;5068114;28;20481;-66
2023/03/03 05:05:48;;;;;;;74.80;14.20;;;;;;;;;;5067878;28;20036;-65
2023/03/03 05:08:14;;;;;;;64.75;13.88;;;;;;;;;;5063659;28;20041;-65
2023/03/03 05:10:40;;;;;;;84.72;14.63;;;;;;;;;;5066329;28;20291;-66
2023/03/03 05:13:08;;;;;;;79.68;14.15;;;;;;;;;;5050423;28;20040;-66
2023/03/03 05:15:34;;;;;;;65.60;13.40;;;;;;;;;;5068212;28;20399;-66
2023/03/03 05:18:00;;;;;;;72.25;13.00;;;;;;;;;;5067315;28;20040;-66
2023/03/03 05:20:26;;;;;;;68.07;13.15;;;;;;;;;;5070556;28;20036;-65
2023/03/03 05:22:52;;;;;;;63.78;13.57;;;;;;;;;;5059448;28;20098;-66
2023/03/03 05:25:18;;;;;;;54.85;13.18;;;;;;;;;;5070322;28;20040;-65
2023/03/03 05:27:44;;;;;;;44.63;11.95;;;;;;;;;;5069822;28;20097;-65
2023/03/03 05:30:11;;;;;;;58.67;13.25;;;;;;;;;;5068719;28;20786;-66
2023/03/03 05:32:37;;;;;;;44.17;11.00;;;;;;;;;;5064170;28;20048;-66
2023/03/03 05:35:04;;;;;;;54.97;12.02;;;;;;;;;;5061319;28;20119;-66
2023/03/03 05:37:30;;;;;;;78.00;12.88;;;;;;;;;;5052599;28;20125;-66
2023/03/03 05:39:56;;;;;;;59.92;11.88;;;;;;;;;;5069123;28;20040;-66
2023/03/03 05:42:22;;;;;;;57.47;12.77;;;;;;;;;;5071066;28;20391;-66
2023/03/03 05:44:48;;;;;;;49.95;12.73;;;;;;;;;;5069267;28;20040;-66
2023/03/03 05:47:14;;;;;;;74.32;13.55;;;;;;;;;;5068266;28;20393;-66
2023/03/03 05:49:40;;;;;;;69.10;13.00;;;;;;;;;;5071056;28;20047;-66
2023/03/03 05:52:07;;;;;;;75.10;12.90;;;;;;;;;;5066844;28;20041;-65
2023/03/03 05:54:34;;;;;;;60.15;12.20;;;;;;;;;;5065700;28;20512;-65
2023/03/03 05:57:00;;;;;;;64.05;13.02;;;;;;;;;;5068450;28;20067;-66
2023/03/03 05:59:26;;;;;;;70.13;15.18;;;;;;;;;;5069346;28;20064;-66
2023/03/03 06:01:52;;;;;;;79.38;13.73;;;;;;;;;;5068284;28;20406;-66
2023/03/03 06:04:18;;;;;;;62.83;13.55;;;;;;;;;;5071067;28;20046;-65
2023/03/03 06:06:44;;;;;;;52.72;12.70;;;;;;;;;;5069173;28;20045;-66
2023/03/03 06:09:10;;;;;;;81.85;14.85;;;;;;;;;;5070051;28;20040;-65
2023/03/03 06:11:36;;;;;;;55.47;13.55;;;;;;;;;;5069770;28;20032;-65
2023/03/03 06:14:02;;;;;;;109.80;16.30;;;;;;;;;;5063798;28;20060;-66
2023/03/03 06:16:28;;;;;;;56.38;12.85;;;;;;;;;;5063300;28;20067;-66
2023/03/03 06:18:54;;;;;;;70.07;12.73;;;;;;;;;;5069915;28;20075;-65
2023/03/03 06:21:20;;;;;;;59.50;12.95;;;;;;;;;;5071319;28;20072;-65
2023/03/03 06:23:46;;;;;;;47.20;12.63;;;;;;;;;;5061721;28;20521;-65
2023/03/03 06:26:12;;;;;;;50.60;12.65;;;;;;;;;;5068492;28;20043;-65
2023/03/03 06:28:38;;;;;;;52.70;12.98;;;;;;;;;;5067044;28;20040;-66
2023/03/03 06:31:04;;;;;;;42.47;13.50;;;;;;;;;;5073078;28;20066;-65
2023/03/03 06:33:30;;;;;;;41.17;13.23;;;;;;;;;;5072970;28;20124;-66
2023/03/03 06:35:57;;;;;;;46.42;13.98;;;;;;;;;;5072246;28;20115;-65
2023/03/03 06:38:23;;;;;;;44.15;11.98;;;;;;;;;;5072790;28;20040;-65
2023/03/03 06:40:49;;;;;;;40.97;13.38;;;;;;;;;;5071996;28;20383;-65
2023/03/03 06:43:15;;;;;;;41.92;13.23;;;;;;;;;;5071052;28;20055;-65
2023/03/03 06:45:42;;;;;;;40.90;12.63;;;;;;;;;;5054463;28;20040;-65
2023/03/03 06:48:08;;;;;;;39.50;13.30;;;;;;;;;;5072811;28;20040;-66
2023/03/03 06:50:34;;;;;;;37.47;13.00;;;;;;;;;;5072233;28;20161;-66
2023/03/03 06:53:16;;;;;;;38.25;13.15;;;;;;;;;;5069267;28;20044;-66
2023/03/03 06:55:43;;;;;;;46.03;14.25;;;;;;;;;;5047984;28;20142;-65
2023/03/03 06:58:14;;;;;;;43.17;14.00;;;;;;;;;;5069115;28;20064;-65
2023/03/03 07:00:44;;;;;;;56.20;14.10;;;;;;;;;;5068445;28;20414;-66
2023/03/03 07:03:18;;;;;;;60.88;15.32;;;;;;;;;;5067615;28;20105;-65
2023/03/03 07:05:44;;;;;;;46.40;15.90;;;;;;;;;;5067783;28;20460;-65
2023/03/03 07:08:17;;;;;;;54.58;15.65;;;;;;;;;;5070455;28;20048;-66
2023/03/03 07:10:44;;;;;;;53.72;14.90;;;;;;;;;;5071869;28;20037;-65
2023/03/03 07:13:23;;;;;;;40.35;14.75;;;;;;;;;;5073207;28;20047;-65
2023/03/03 07:15:50;;;;;;;48.25;15.75;;;;;;;;;;5071143;28;20033;-67
2023/03/03 07:18:25;;;;;;;53.10;15.77;;;;;;;;;;5072250;28;20083;-66
2023/03/03 07:20:51;;;;;;;70.40;16.45;;;;;;;;;;5032413;28;20114;-66
2023/03/03 07:23:22;;;;;;;65.53;16.98;;;;;;;;;;5070261;28;20033;-67
2023/03/03 07:25:48;;;;;;;;;;;;;;;;;;5071265;28;20479;-66
2023/03/03 07:28:25;;;;;;;52.45;15.60;;;;;;;;;;5071283;28;19927;-66
2023/03/03 07:30:52;;;;;;;52.08;14.70;;;;;;;;;;5050834;28;20497;-66
2023/03/03 07:33:28;;;;;;;43.88;13.70;;;;;;;;;;5071652;28;20028;-65
2023/03/03 07:35:56;;;;;;;59.72;16.08;;;;;;;;;;5068539;28;20037;-65
2023/03/03 07:38:34;;;;;;;52.28;15.05;;;;;;;;;;5068813;28;20048;-65
2023/03/03 07:41:01;;;;;;;51.58;15.07;;;;;;;;;;5070980;28;20047;-65
2023/03/03 07:43:30;;;;;;;47.50;14.32;;;;;;;;;;5068584;28;20174;-65
2023/03/03 07:46:02;;;;;;;52.75;15.50;;;;;;;;;;5066899;28;20047;-65
2023/03/03 07:48:41;;;;;;;43.22;14.38;;;;;;;;;;5070758;28;20055;-65
2023/03/03 07:51:14;;;;;;;54.25;16.63;;;;;;;;;;5069908;28;20387;-65
2023/03/03 07:53:40;;;;;;;41.97;13.88;;;;;;;;;;5071360;28;20070;-65
2023/03/03 07:56:14;;;;;;;42.33;14.05;;;;;;;;;;5071183;28;20083;-65
2023/03/03 07:58:41;;;;;;;44.40;15.15;;;;;;;;;;5067896;28;20105;-65
2023/03/03 08:01:19;;;;;;;38.58;13.90;;;;;;;;;;5070997;28;20037;-65
2023/03/03 08:03:46;;;;;;;38.50;13.70;;;;;;;;;;5071850;28;20048;-65
2023/03/03 08:06:31;;;;;;;43.58;14.52;;;;;;;;;;5071174;28;20037;-65
2023/03/03 08:09:01;;;;;;;43.22;14.32;;;;;;;;;;5070171;28;20070;-64
2023/03/03 08:11:27;;;;;;;40.58;14.07;;;;;;;;;;5069875;28;20037;-65
2023/03/03 08:13:53;;;;;;;41.80;14.85;;;;;;;;;;5047637;28;20044;-65
2023/03/03 08:16:48;;;;;;;39.53;14.05;;;;;;;;;;5068098;28;20028;-65
2023/03/03 08:19:17;;;;;;;34.10;12.02;;;;;;;;;;5052832;28;20049;-61
2023/03/03 08:21:43;;;;;;;33.50;12.57;;;;;;;;;;5064973;28;20044;-61
2023/03/03 08:24:09;;;;;;;37.65;13.48;;;;;;;;;;5071276;28;20036;-61
2023/03/03 08:26:35;;;;;;;38.40;13.55;;;;;;;;;;5071616;28;20671;-61
2023/03/03 08:29:02;;;;;;;41.10;14.45;;;;;;;;;;5065221;28;20124;-61
2023/03/03 08:31:28;;;;;;;35.65;13.35;;;;;;;;;;5056332;28;20567;-61
2023/03/03 08:33:54;;;;;;;37.13;13.13;;;;;;;;;;5068207;28;20041;-62
2023/03/03 08:36:20;;;;;;;36.22;12.98;;;;;;;;;;5075823;22;20350;-62
2023/03/03 08:38:46;;;;;;;33.92;11.82;;;;;;;;;;5084087;28;20044;-62
2023/03/03 08:41:12;;;;;;;36.78;11.95;;;;;;;;;;5078943;28;20031;-61
2023/03/03 08:43:38;;;;;;;28.85;11.13;;;;;;;;;;5088887;28;20038;-61
2023/03/03 08:46:06;;;;;;;26.63;10.60;;;;;;;;;;5073826;28;20040;-62
2023/03/03 08:48:32;;;;;;;29.80;11.38;;;;;;;;;;5092472;28;20048;-62
2023/03/03 08:50:59;;;;;;;26.63;10.45;;;;;;;;;;5092293;28;20078;-62
2023/03/03 08:53:25;;;;;;;26.52;10.60;;;;;;;;;;5063670;28;20090;-62
2023/03/03 08:55:51;;;;;;;29.98;10.82;;;;;;;;;;5065667;28;20047;-62
2023/03/03 08:58:18;;;;;;;32.53;12.60;;;;;;;;;;5087184;28;20040;-61
2023/03/03 09:00:44;;;;;;;30.00;10.63;;;;;;;;;;5071548;28;20064;-62
2023/03/03 09:03:10;;;;;;;23.85;10.45;;;;;;;;;;5064304;28;21546;-62
2023/03/03 09:05:37;;;;;;;28.42;11.50;;;;;;;;;;5068057;28;20093;-62
2023/03/03 09:08:03;;;;;;;22.42;9.82;;;;;;;;;;5060762;28;20076;-62
2023/03/03 09:10:30;;;;;;;24.65;10.27;;;;;;;;;;5068275;28;20039;-61
2023/03/03 09:13:02;;;;;;;19.17;8.80;;;;;;;;;;5079179;28;20045;-61
2023/03/03 09:15:30;;;;;;;24.65;10.50;;;;;;;;;;5078426;28;20044;-62
2023/03/03 09:18:05;;;;;;;21.38;9.93;;;;;;;;;;5082919;28;20044;-61
2023/03/03 09:20:36;;;;;;;22.73;9.65;;;;;;;;;;5071768;28;20037;-62
2023/03/03 09:23:21;;;;;;;24.52;10.15;;;;;;;;;;5074376;28;20078;-62
2023/03/03 09:25:47;;;;;;;24.27;10.15;;;;;;;;;;5066101;28;20048;-62
2023/03/03 09:28:24;;;;;;;23.92;9.85;;;;;;;;;;5044190;28;20036;-62
2023/03/03 09:30:51;;;;;;;20.92;9.02;;;;;;;;;;5038788;28;20055;-62
2023/03/03 09:33:25;;;;;;;19.52;8.75;;;;;;;;;;5059257;28;20056;-62
2023/03/03 09:36:00;;;;;;;20.30;8.48;;;;;;;;;;5063432;28;20037;-62
2023/03/03 09:38:28;;;;;;;20.40;9.20;;;;;;;;;;5060428;28;20401;-61
2023/03/03 09:40:54;;;;;;;18.52;8.65;;;;;;;;;;5069167;28;20037;-62
2023/03/03 09:43:42;;;;;;;16.80;8.32;;;;;;;;;;5070691;28;20039;-62
2023/03/03 09:46:23;;;;;;;20.13;8.50;;;;;;;;;;5064675;28;20558;-62
2023/03/03 09:48:55;;;;;;;19.33;8.13;;;;;;;;;;5052903;28;20059;-61
2023/03/03 09:51:31;;;;;;;15.80;7.97;;;;;;;;;;5060749;28;20036;-62
2023/03/03 09:53:57;;;;;;;18.23;7.88;;;;;;;;;;5065890;28;20075;-62
2023/03/03 09:56:35;;;;;;;16.25;8.18;;;;;;;;;;5044116;28;20477;-62
2023/03/03 09:59:04;;;;;;;15.88;7.38;;;;;;;;;;5068011;28;20131;-62
2023/03/03 10:01:42;;;;;;;20.85;8.95;;;;;;;;;;5083152;28;20119;-62
2023/03/03 10:04:17;;;;;;;18.02;8.77;;;;;;;;;;5074779;28;20040;-62
2023/03/03 10:06:52;;;;;;;16.13;8.52;;;;;;;;;;5073064;28;20040;-62
2023/03/03 10:09:37;;;;;;;15.68;7.63;;;;;;;;;;5080442;28;20075;-62
2023/03/03 10:12:06;;;;;;;13.95;7.25;;;;;;;;;;5070276;28;20479;-62
2023/03/03 10:14:41;;;;;;;18.20;7.80;;;;;;;;;;5064815;28;20036;-62
2023/03/03 10:17:25;;;;;;;17.08;7.13;;;;;;;;;;5077970;28;20051;-62
2023/03/03 10:20:02;;;;;;;18.15;7.93;;;;;;;;;;5063485;28;20047;-62
2023/03/03 10:22:34;;;;;;;17.58;7.82;;;;;;;;;;5059244;28;20119;-62
2023/03/03 10:25:00;;;;;;;18.13;7.72;;;;;;;;;;5077055;28;20592;-62
2023/03/03 10:27:39;;;;;;;14.32;7.07;;;;;;;;;;5077018;28;20049;-62
2023/03/03 10:30:13;;;;;;;14.35;7.28;;;;;;;;;;5077220;28;20051;-62
2023/03/03 10:32:41;;;;;;;13.93;7.85;;;;;;;;;;5070777;28;20044;-62
2023/03/03 10:35:15;;;;;;;14.95;7.65;;;;;;;;;;5072088;28;20054;-62
2023/03/03 10:38:00;;;;;;;15.35;7.95;;;;;;;;;;5089354;22;20304;-62
2023/03/03 10:40:35;;;;;;;16.80;7.97;;;;;;;;;;5085369;28;20501;-62
2023/03/03 10:43:15;;;;;;;18.92;8.07;;;;;;;;;;5086052;28;20032;-61
2023/03/03 10:45:45;;;;;;;13.90;7.80;;;;;;;;;;5069682;28;20036;-61
2023/03/03 10:48:25;;;;;;;14.73;7.55;;;;;;;;;;5086498;28;20088;-61
2023/03/03 10:51:14;;;;;;;16.85;8.23;;;;;;;;;;5083109;28;20036;-61
2023/03/03 10:53:58;;;;;;;16.70;8.02;;;;;;;;;;5072724;28;20093;-61
2023/03/03 10:56:30;;;;;;;19.27;8.18;;;;;;;;;;5084540;28;20040;-62
2023/03/03 10:59:02;;;;;;;15.48;8.38;;;;;;;;;;5090601;28;20040;-62
2023/03/03 11:01:37;;;;;;;17.05;7.88;;;;;;;;;;5080946;28;20039;-62
2023/03/03 11:04:09;;;;;;;19.40;9.00;;;;;;;;;;5084940;28;20051;-61
2023/03/03 11:06:54;;;;;;;20.75;8.57;;;;;;;;;;5088367;28;20036;-62
2023/03/03 11:09:23;;;;;;;22.20;8.57;;;;;;;;;;5083327;28;20105;-62
2023/03/03 11:11:54;;;;;;;16.60;8.88;;;;;;;;;;5090501;28;20448;-62
2023/03/03 11:14:27;;;;;;;15.32;7.85;;;;;;;;;;5088039;28;20044;-62
2023/03/03 11:16:53;;;;;;;17.02;8.70;;;;;;;;;;5066033;28;20123;-62
2023/03/03 11:19:31;;;;;;;17.33;8.07;;;;;;;;;;5084475;28;20131;-61
2023/03/03 11:22:04;;;;;;;15.60;8.13;;;;;;;;;;5087249;28;20425;-62
2023/03/03 11:24:37;;;;;;;16.95;8.20;;;;;;;;;;5085591;28;20067;-61
2023/03/03 11:27:15;;;;;;;14.20;7.40;;;;;;;;;;5089650;28;20409;-61
2023/03/03 11:29:48;;;;;;;15.73;7.38;;;;;;;;;;5081283;28;20040;-61
2023/03/03 11:32:14;;;;;;;15.57;7.88;;;;;;;;;;5084719;28;20055;-61
2023/03/03 11:34:39;;;;;;;12.77;7.32;;;;;;;;;;5083257;28;20036;-61
2023/03/03 11:37:08;;;;;;;14.63;7.22;;;;;;;;;;5089987;28;20036;-61
2023/03/03 11:39:34;;;;;;;13.48;7.30;;;;;;;;;;5090681;28;20063;-61
2023/03/03 11:42:19;;;;;;;14.85;7.38;;;;;;;;;;5089461;28;20036;-61
2023/03/03 11:44:48;;;;;;;14.30;6.88;;;;;;;;;;5089947;28;20044;-61
2023/03/03 11:47:18;;;;;;;14.55;6.55;;;;;;;;;;5065597;28;20044;-61
2023/03/03 11:49:59;;;;;;;13.13;6.63;;;;;;;;;;5068896;28;20079;-61
2023/03/03 11:52:31;;;;;;;13.98;6.82;;;;;;;;;;5085327;28;20040;-61
2023/03/03 11:55:08;;;;;;;14.10;6.38;;;;;;;;;;5089708;28;20040;-61
2023/03/03 11:57:39;;;;;;;13.15;6.15;;;;;;;;;;5085537;28;20040;-61
2023/03/03 12:00:12;;;;;;;18.58;6.45;;;;;;;;;;5087698;28;20044;-61
2023/03/03 12:02:38;;;;;;;11.38;5.72;;;;;;;;;;5078931;28;20047;-62
2023/03/03 12:05:22;;;;;;;12.23;5.88;;;;;;;;;;5081540;28;20044;-63
2023/03/03 12:08:07;;;;;;;11.90;6.13;;;;;;;;;;5083401;28;20048;-62
2023/03/03 12:10:50;;;;;;;11.43;5.68;;;;;;;;;;5089120;28;20048;-62
2023/03/03 12:13:19;;;;;;;11.32;5.38;;;;;;;;;;5084764;28;20044;-63
2023/03/03 12:15:54;;;;;;;10.05;4.88;;;;;;;;;;5090267;28;20036;-62
2023/03/03 12:18:25;;;;;;;10.43;4.63;;;;;;;;;;5085798;28;20038;-63
2023/03/03 12:21:12;;;;;;;11.15;5.28;;;;;;;;;;5090876;28;20115;-62
2023/03/03 12:23:44;;;;;;;10.15;5.10;;;;;;;;;;5081967;28;20040;-63
2023/03/03 12:26:12;;;;;;;12.20;5.32;;;;;;;;;;5084311;28;20036;-62
2023/03/03 12:28:41;;;;;;;10.70;5.82;;;;;;;;;;5088872;28;20040;-62
2023/03/03 12:31:21;;;;;;;12.20;6.20;;;;;;;;;;5084968;28;20057;-63
2023/03/03 12:33:47;;;;;;;14.18;5.82;;;;;;;;;;5084498;28;20047;-62
2023/03/03 12:36:39;;;;;;;10.05;5.55;;;;;;;;;;5087305;28;20044;-63
2023/03/03 12:39:17;;;;;;;11.80;4.82;;;;;;;;;;5042157;28;20044;-62
2023/03/03 12:41:55;;;;;;;10.80;4.53;;;;;;;;;;5085362;28;20551;-62
2023/03/03 12:44:23;;;;;;;5.35;2.60;;;;;;;;;;5083963;28;20044;-62
2023/03/03 12:46:52;;;;;;;1.85;1.30;;;;;;;;;;5090561;28;20035;-62
2023/03/03 12:49:18;;;;;;;5.22;2.90;;;;;;;;;;5079452;28;20044;-62
2023/03/03 12:51:47;;;;;;;4.10;2.70;;;;;;;;;;5086336;28;20032;-63
2023/03/03 12:54:18;;;;;;;2.90;2.08;;;;;;;;;;5086687;28;20512;-63
2023/03/03 12:56:54;;;;;;;4.57;1.70;;;;;;;;;;5088801;28;20093;-62
2023/03/03 12:59:29;;;;;;;5.47;2.00;;;;;;;;;;5084877;28;20067;-62
2023/03/03 13:02:04;;;;;;;6.57;2.63;;;;;;;;;;5088734;28;20520;-62
2023/03/03 13:04:30;;;;;;;4.50;2.55;;;;;;;;;;5087182;28;20047;-62
2023/03/03 13:07:04;;;;;;;4.30;2.00;;;;;;;;;;5085662;28;20419;-62
2023/03/03 13:09:33;;;;;;;3.65;2.42;;;;;;;;;;5086331;28;20397;-62
2023/03/03 13:12:22;;;;;;;3.80;1.80;;;;;;;;;;5069863;28;20046;-63
2023/03/03 13:14:52;;;;;;;3.60;1.73;;;;;;;;;;5076570;28;20075;-62
2023/03/03 13:17:18;;;;;;;3.53;1.90;;;;;;;;;;5088055;28;20359;-62
2023/03/03 13:19:50;;;;;;;4.22;1.67;;;;;;;;;;5089572;28;20028;-63
2023/03/03 13:22:20;;;;;;;3.67;2.00;;;;;;;;;;5081466;28;20062;-62
2023/03/03 13:25:09;;;;;;;3.65;2.00;;;;;;;;;;5083635;28;20119;-62
2023/03/03 13:27:40;;;;;;;6.75;2.20;;;;;;;;;;5080281;28;20044;-62
2023/03/03 13:30:25;;;;;;;4.55;2.20;;;;;;;;;;5078048;28;20071;-62
2023/03/03 13:33:20;;;;;;;4.88;2.30;;;;;;;;;;5085032;28;20040;-62
2023/03/03 13:35:51;;;;;;;3.85;1.90;;;;;;;;;;5070870;28;20098;-62
2023/03/03 13:38:20;;;;;;;7.90;2.47;;;;;;;;;;5088288;28;20126;-62
2023/03/03 13:40:48;;;;;;;4.00;2.58;;;;;;;;;;5087330;28;20071;-63
2023/03/03 13:43:28;;;;;;;2.42;2.03;;;;;;;;;;5092125;28;20047;-62
2023/03/03 13:46:08;;;;;;;3.38;1.85;;;;;;;;;;5091979;28;20497;-62
2023/03/03 13:48:43;;;;;;;4.18;2.03;;;;;;;;;;5090510;28;20048;-62
2023/03/03 13:51:19;;;;;;;3.05;2.00;;;;;;;;;;5089731;28;20032;-63
2023/03/03 13:53:45;;;;;;;3.88;2.17;;;;;;;;;;5089955;28;20032;-62
2023/03/03 13:56:19;;;;;;;4.57;2.30;;;;;;;;;;5094202;28;20067;-62
2023/03/03 13:59:03;;;;;;;6.78;2.58;;;;;;;;;;5088876;28;20071;-62
2023/03/03 14:01:45;;;;;;;3.88;2.15;;;;;;;;;;5086587;28;20041;-62
2023/03/03 14:04:20;;;;;;;3.22;1.60;;;;;;;;;;5084020;28;20035;-62
2023/03/03 14:06:51;;;;;;;3.25;1.42;;;;;;;;;;5084522;28;20119;-62
2023/03/03 14:09:30;;;;;;;3.63;1.75;;;;;;;;;;5084726;28;20126;-62
2023/03/03 14:12:02;;;;;;;5.10;2.10;;;;;;;;;;5089980;28;20114;-62
2023/03/03 14:14:37;;;;;;;6.10;1.98;;;;;;;;;;5085828;28;20028;-62
2023/03/03 14:17:22;;;;;;;5.28;3.03;;;;;;;;;;5083624;28;20401;-62
2023/03/03 14:19:50;;;;;;;5.18;2.10;;;;;;;;;;5092740;28;20448;-63
2023/03/03 14:22:23;;;;;;;4.45;1.98;;;;;;;;;;5091593;28;20047;-63
2023/03/03 14:24:54;;;;;;;5.22;2.13;;;;;;;;;;5091736;28;20036;-63
2023/03/03 14:27:32;;;;;;;4.30;2.10;;;;;;;;;;5089791;28;20042;-61
2023/03/03 14:29:58;;;;;;;6.55;2.00;;;;;;;;;;5084648;28;20525;-63
2023/03/03 14:32:25;;;;;;;5.28;2.03;;;;;;;;;;5094462;28;20071;-63
2023/03/03 14:34:58;;;;;;;4.00;1.88;;;;;;;;;;5088220;28;20116;-63
2023/03/03 14:37:29;;;;;;;5.38;2.65;;;;;;;;;;5088691;28;20052;-63
2023/03/03 14:40:06;;;;;;;5.20;2.20;;;;;;;;;;5091894;28;20461;-63
2023/03/03 14:42:35;;;;;;;3.60;1.60;;;;;;;;;;5092132;28;20082;-63